createdAt,value
2023-01-29T00:00:32.129Z,10.60
2023-01-29T00:01:41.681Z,10.27
2023-01-29T00:02:51.353Z,10.32
2023-01-29T00:04:00.038Z,9.37
2023-01-29T00:05:26.611Z,11.10
2023-01-29T00:06:23.569Z,10.70
2023-01-29T00:07:32.577Z,12.03
2023-01-29T00:08:41.167Z,12.07
2023-01-29T00:09:50.805Z,10.80
2023-01-29T00:11:03.121Z,9.45
2023-01-29T00:12:11.642Z,10.83
2023-01-29T00:13:20.676Z,9.85
2023-01-29T00:14:30.203Z,9.90
2023-01-29T00:15:39.936Z,9.78
2023-01-29T00:16:48.623Z,10.22
2023-01-29T00:17:57.372Z,9.23
2023-01-29T00:19:06.660Z,9.95
2023-01-29T00:20:17.154Z,9.92
2023-01-29T00:22:34.979Z,10.32
2023-01-29T00:23:44.531Z,8.68
2023-01-29T00:24:53.387Z,10.08
2023-01-29T00:26:02.568Z,8.67
2023-01-29T00:27:12.857Z,10.08
2023-01-29T00:28:21.923Z,10.80
2023-01-29T00:29:31.442Z,10.20
2023-01-29T00:31:55.923Z,10.83
2023-01-29T00:33:05.809Z,9.40
2023-01-29T00:34:14.868Z,10.42
2023-01-29T00:35:23.500Z,10.15
2023-01-29T00:36:33.514Z,10.55
2023-01-29T00:37:50.795Z,9.73
2023-01-29T00:39:02.476Z,10.56
2023-01-29T00:40:13.505Z,9.65
2023-01-29T00:41:41.023Z,11.33
2023-01-29T00:43:09.409Z,9.48
2023-01-29T00:44:37.699Z,10.27
2023-01-29T00:45:46.902Z,9.30
2023-01-29T00:46:56.020Z,9.65
2023-01-29T00:48:06.538Z,10.05
2023-01-29T00:49:15.493Z,9.10
2023-01-29T00:50:25.431Z,9.67
2023-01-29T00:51:35.373Z,10.23
2023-01-29T00:52:45.002Z,9.77
2023-01-29T00:55:13.887Z,9.10
2023-01-29T00:56:22.383Z,10.08
2023-01-29T00:59:08.805Z,9.03
2023-01-29T01:00:19.562Z,9.15
2023-01-29T01:01:47.528Z,9.46
2023-01-29T01:03:05.981Z,7.93
2023-01-29T01:04:15.798Z,9.15
2023-01-29T01:05:24.868Z,9.10
2023-01-29T01:06:35.969Z,8.73
2023-01-29T01:07:46.919Z,10.00
2023-01-29T01:09:14.075Z,11.00
2023-01-29T01:11:44.026Z,10.77
2023-01-29T01:13:02.001Z,10.45
2023-01-29T01:14:12.454Z,10.70
2023-01-29T01:15:25.547Z,10.57
2023-01-29T01:16:34.916Z,9.95
2023-01-29T01:17:43.676Z,10.25
2023-01-29T01:18:52.799Z,9.45
2023-01-29T01:20:02.184Z,9.47
2023-01-29T01:21:11.273Z,8.95
2023-01-29T01:22:20.698Z,10.08
2023-01-29T01:23:30.092Z,10.55
2023-01-29T01:24:39.878Z,9.70
2023-01-29T01:25:48.742Z,9.65
2023-01-29T01:26:58.418Z,8.97
2023-01-29T01:28:10.233Z,8.87
2023-01-29T01:29:19.993Z,9.55
2023-01-29T01:30:29.446Z,9.77
2023-01-29T01:31:39.225Z,11.58
2023-01-29T01:32:50.488Z,10.90
2023-01-29T01:34:00.127Z,11.98
2023-01-29T01:36:28.785Z,13.40
2023-01-29T01:37:38.754Z,13.32
2023-01-29T01:38:48.558Z,13.20
2023-01-29T01:39:58.307Z,13.65
2023-01-29T01:41:06.911Z,11.40
2023-01-29T01:42:16.519Z,11.13
2023-01-29T01:43:25.054Z,10.28
2023-01-29T01:44:55.177Z,10.62
2023-01-29T01:46:04.349Z,9.95
2023-01-29T01:47:15.756Z,9.37
2023-01-29T01:48:26.941Z,9.52
2023-01-29T01:49:36.761Z,9.37
2023-01-29T01:52:12.635Z,10.73
2023-01-29T01:53:28.136Z,12.33
2023-01-29T01:54:37.908Z,11.07
2023-01-29T01:55:51.089Z,11.30
2023-01-29T01:57:14.236Z,13.05
2023-01-29T01:58:27.613Z,12.08
2023-01-29T01:59:41.126Z,12.18
2023-01-29T05:38:22.416Z,25.58
2023-01-29T05:39:31.956Z,21.53
2023-01-29T05:40:42.829Z,20.05
2023-01-29T05:44:15.624Z,18.10
2023-01-29T05:45:25.681Z,17.47
2023-01-29T05:46:34.530Z,15.25
2023-01-29T05:47:43.979Z,17.83
2023-01-29T05:48:53.011Z,17.37
2023-01-29T05:50:01.547Z,17.50
2023-01-29T05:51:11.314Z,16.98
2023-01-29T05:52:19.815Z,15.50
2023-01-29T05:53:29.420Z,16.33
2023-01-29T05:54:38.015Z,15.63
2023-01-29T05:55:47.659Z,16.73
2023-01-29T05:56:56.976Z,15.98
2023-01-29T05:58:06.838Z,15.67
2023-01-29T05:59:16.425Z,14.60
2023-01-29T06:00:26.481Z,14.68
2023-01-29T06:02:50.834Z,16.98
2023-01-29T06:03:59.697Z,16.80
2023-01-29T06:05:09.005Z,17.58
2023-01-29T06:06:18.905Z,17.70
2023-01-29T06:07:30.194Z,17.10
2023-01-29T06:08:39.896Z,17.52
2023-01-29T06:09:48.672Z,17.23
2023-01-29T06:10:57.983Z,17.32
2023-01-29T06:12:07.462Z,17.50
2023-01-29T06:13:17.059Z,18.38
2023-01-29T06:14:28.481Z,18.12
2023-01-29T06:15:40.376Z,18.47
2023-01-29T06:16:49.964Z,20.14
2023-01-29T06:17:58.503Z,20.83
2023-01-29T06:19:07.284Z,18.40
2023-01-29T06:21:33.884Z,16.52
2023-01-29T06:22:42.796Z,16.80
2023-01-29T06:23:55.655Z,15.85
2023-01-29T06:25:06.370Z,15.36
2023-01-29T06:26:16.965Z,16.45
2023-01-29T06:27:26.765Z,17.42
2023-01-29T06:28:37.686Z,17.50
2023-01-29T06:31:22.019Z,17.88
2023-01-29T06:32:14.002Z,20.23
2023-01-29T06:34:38.877Z,21.15
2023-01-29T06:35:47.385Z,22.87
2023-01-29T06:36:56.028Z,22.95
2023-01-29T06:38:04.543Z,25.68
2023-01-29T06:39:14.544Z,26.50
2023-01-29T06:40:24.582Z,26.45
2023-01-29T06:41:34.110Z,25.03
2023-01-29T06:42:46.066Z,22.17
2023-01-29T06:43:54.578Z,21.25
2023-01-29T06:45:03.975Z,21.28
2023-01-29T06:46:14.155Z,19.45
2023-01-29T06:47:24.618Z,17.87
2023-01-29T06:48:34.466Z,18.50
2023-01-29T06:51:19.091Z,14.93
2023-01-29T06:52:28.493Z,16.87
2023-01-29T06:53:39.472Z,16.57
2023-01-29T06:54:53.028Z,17.70
2023-01-29T06:57:18.027Z,19.57
2023-01-29T06:59:42.515Z,19.73
2023-01-29T07:00:52.358Z,18.63
2023-01-29T07:03:15.991Z,18.53
2023-01-29T07:04:25.445Z,17.60
2023-01-29T07:05:34.334Z,16.85
2023-01-29T07:06:43.731Z,15.00
2023-01-29T07:07:52.405Z,17.08
2023-01-29T07:09:03.762Z,15.03
2023-01-29T07:10:12.390Z,14.85
2023-01-29T07:11:21.699Z,15.67
2023-01-29T07:12:30.216Z,15.80
2023-01-29T07:13:39.222Z,17.05
2023-01-29T07:14:48.822Z,18.77
2023-01-29T07:17:16.916Z,33.65
2023-01-29T07:18:27.691Z,19.88
2023-01-29T07:19:37.084Z,16.85
2023-01-29T07:20:46.371Z,17.70
2023-01-29T07:21:56.861Z,15.30
2023-01-29T07:23:07.239Z,15.70
2023-01-29T07:24:16.302Z,16.85
2023-01-29T07:26:40.244Z,52.30
2023-01-29T07:27:49.523Z,39.32
2023-01-29T07:28:58.642Z,23.62
2023-01-29T07:31:24.175Z,17.80
2023-01-29T07:32:33.170Z,19.43
2023-01-29T07:35:00.495Z,19.12
2023-01-29T07:36:10.842Z,18.38
2023-01-29T07:37:19.420Z,17.20
2023-01-29T07:40:04.685Z,16.38
2023-01-29T07:42:26.024Z,16.38
2023-01-29T07:43:34.578Z,17.63
2023-01-29T07:44:47.026Z,17.53
2023-01-29T07:45:56.939Z,18.35
2023-01-29T07:47:06.447Z,18.65
2023-01-29T07:49:31.585Z,18.58
2023-01-29T07:50:41.680Z,20.43
2023-01-29T07:51:51.466Z,18.90
2023-01-29T07:54:17.079Z,20.67
2023-01-29T07:56:44.182Z,17.17
2023-01-29T07:58:00.898Z,16.97
2023-01-29T07:59:10.439Z,15.77
2023-01-29T08:00:21.193Z,13.10
2023-01-29T08:02:45.578Z,14.55
2023-01-29T08:03:54.233Z,16.25
2023-01-29T08:05:04.717Z,18.08
2023-01-29T08:07:30.015Z,19.18
2023-01-29T08:08:39.131Z,21.83
2023-01-29T08:09:48.689Z,22.12
2023-01-29T08:12:14.824Z,22.80
2023-01-29T08:14:58.662Z,18.55
2023-01-29T08:17:23.930Z,18.00
2023-01-29T08:18:32.844Z,20.70
2023-01-29T08:19:42.507Z,22.07
2023-01-29T08:20:52.798Z,20.45
2023-01-29T08:22:02.301Z,17.50
2023-01-29T08:23:17.075Z,18.88
2023-01-29T08:24:31.362Z,18.10
2023-01-29T08:25:36.903Z,16.98
2023-01-29T08:28:00.968Z,15.48
2023-01-29T08:29:12.278Z,16.72
2023-01-29T08:30:22.073Z,17.00
2023-01-29T08:31:31.889Z,18.72
2023-01-29T08:32:40.818Z,19.30
2023-01-29T08:35:05.895Z,20.22
2023-01-29T08:37:30.508Z,22.05
2023-01-29T08:38:39.852Z,43.05
2023-01-29T08:39:49.514Z,24.50
2023-01-29T08:40:59.103Z,19.15
2023-01-29T08:43:23.510Z,17.92
2023-01-29T08:44:33.053Z,17.15
2023-01-29T08:45:44.215Z,14.62
2023-01-29T08:46:53.308Z,17.07
2023-01-29T08:48:03.481Z,17.63
2023-01-29T08:49:13.433Z,18.50
2023-01-29T08:51:37.851Z,19.62
2023-01-29T08:52:46.849Z,19.77
2023-01-29T08:53:55.458Z,20.25
2023-01-29T08:55:05.440Z,19.83
2023-01-29T08:56:16.088Z,17.80
2023-01-29T08:57:25.208Z,16.74
2023-01-29T08:58:33.887Z,16.52
2023-01-29T08:59:42.537Z,18.40
2023-01-29T09:00:52.240Z,20.47
2023-01-29T09:02:00.813Z,20.42
2023-01-29T09:03:09.508Z,20.77
2023-01-29T09:04:19.153Z,20.38
2023-01-29T09:05:28.170Z,23.92
2023-01-29T09:06:40.760Z,19.88
2023-01-29T09:09:04.470Z,24.18
2023-01-29T09:10:13.943Z,20.55
2023-01-29T09:11:23.037Z,16.73
2023-01-29T09:12:33.402Z,16.47
2023-01-29T09:13:41.895Z,17.65
2023-01-29T09:14:51.769Z,17.73
2023-01-29T09:16:04.002Z,19.30
2023-01-29T09:17:12.497Z,18.70
2023-01-29T09:18:21.405Z,20.20
2023-01-29T09:19:31.004Z,21.25
2023-01-29T09:20:40.096Z,21.14
2023-01-29T09:21:49.239Z,22.42
2023-01-29T09:22:58.836Z,21.43
2023-01-29T09:24:09.704Z,23.73
2023-01-29T09:26:28.322Z,17.70
2023-01-29T09:28:53.806Z,16.33
2023-01-29T09:31:21.792Z,18.65
2023-01-29T09:32:52.614Z,19.50
2023-01-29T09:33:42.007Z,18.28
2023-01-29T09:36:26.162Z,21.08
2023-01-29T09:37:36.150Z,23.00
2023-01-29T09:38:44.760Z,23.35
2023-01-29T09:39:54.271Z,24.58
2023-01-29T09:41:17.044Z,23.32
2023-01-29T09:43:54.160Z,21.60
2023-01-29T09:46:29.290Z,21.08
2023-01-29T09:47:37.859Z,19.42
2023-01-29T09:48:48.154Z,17.95
2023-01-29T09:50:01.672Z,21.20
2023-01-29T09:51:23.348Z,20.77
2023-01-29T09:54:04.399Z,21.26
2023-01-29T09:56:51.701Z,20.05
2023-01-29T09:59:26.724Z,17.02
2023-01-29T10:02:26.174Z,14.87
2023-01-29T10:03:55.871Z,14.85
2023-01-29T10:05:29.659Z,14.15
2023-01-29T10:07:11.866Z,14.38
2023-01-29T10:08:39.061Z,14.68
2023-01-29T10:10:01.857Z,16.50
2023-01-29T12:11:31.882Z,18.77
2023-01-29T12:12:46.537Z,16.02
2023-01-29T12:13:59.081Z,15.73
2023-01-29T12:20:01.562Z,11.58
2023-01-29T12:23:00.580Z,11.92
2023-01-29T12:24:28.163Z,11.63
2023-01-29T12:25:44.260Z,11.60
2023-01-29T12:26:57.171Z,11.72
2023-01-29T12:30:03.331Z,13.88
2023-01-29T12:31:22.051Z,13.43
2023-01-29T14:27:49.235Z,15.37
2023-01-29T14:29:18.809Z,13.27
2023-01-29T14:31:57.583Z,11.40
2023-01-29T14:34:37.871Z,9.87
2023-01-29T14:35:52.163Z,11.22
2023-01-29T14:37:29.466Z,11.82
2023-01-29T14:38:42.071Z,12.15
2023-01-29T14:39:56.382Z,12.57
2023-01-29T14:43:07.810Z,12.75
2023-01-29T14:44:46.548Z,13.90
2023-01-29T14:45:55.072Z,13.77
2023-01-29T14:47:04.486Z,13.72
2023-01-29T14:50:04.177Z,13.58
2023-01-29T14:51:17.137Z,14.77
2023-01-29T14:52:43.781Z,14.65
2023-01-29T14:56:39.921Z,14.02
2023-01-29T14:57:50.525Z,15.82
2023-01-29T14:59:03.990Z,14.88
2023-01-29T15:01:59.104Z,14.83
2023-01-29T15:03:20.142Z,14.32
2023-01-29T15:05:48.994Z,15.95
2023-01-29T15:08:31.716Z,14.67
2023-01-29T15:09:50.459Z,15.70
2023-01-29T15:12:58.388Z,14.82
2023-01-29T15:14:27.403Z,16.20
2023-01-29T15:17:17.681Z,14.62
2023-01-29T15:18:39.662Z,11.82
2023-01-29T15:21:14.055Z,14.57
2023-01-29T15:22:25.880Z,14.60
2023-01-29T15:23:34.678Z,14.62
2023-01-29T15:26:05.748Z,14.03
2023-01-29T15:27:20.235Z,15.20
2023-01-29T15:29:53.976Z,15.33
2023-01-29T15:31:07.269Z,46.05
2023-01-29T15:33:43.594Z,18.02
2023-01-29T15:36:19.647Z,15.50
2023-01-29T15:37:34.699Z,13.97
2023-01-29T15:40:00.724Z,15.43
2023-01-29T15:45:25.779Z,13.83
2023-01-29T15:49:14.037Z,14.60
2023-01-29T15:50:24.310Z,14.30
2023-01-29T15:51:33.583Z,15.55
2023-01-29T15:54:00.590Z,15.20
2023-01-29T15:55:13.579Z,15.15
2023-01-29T15:56:29.540Z,15.27
2023-01-29T15:57:42.742Z,14.43
2023-01-29T15:58:52.388Z,15.55
2023-01-29T16:01:18.508Z,15.15
2023-01-29T16:02:40.183Z,14.90
2023-01-29T16:03:51.465Z,14.22
2023-01-29T16:05:01.133Z,14.72
2023-01-29T16:06:11.389Z,14.70
2023-01-29T16:07:23.283Z,16.10
2023-01-29T16:08:34.200Z,16.40
2023-01-29T16:09:43.736Z,17.87
2023-01-29T16:10:59.104Z,16.88
2023-01-29T16:12:11.766Z,18.03
2023-01-29T16:14:40.412Z,16.92
2023-01-29T16:17:33.259Z,16.98
2023-01-29T16:18:59.635Z,17.38
2023-01-29T16:20:01.552Z,17.93
2023-01-29T16:21:36.379Z,18.07
2023-01-29T16:22:46.181Z,16.45
2023-01-29T16:25:17.319Z,18.45
2023-01-29T16:26:35.784Z,16.70
2023-01-29T16:27:45.091Z,16.47
2023-01-29T16:28:55.567Z,17.02
2023-01-29T16:30:07.144Z,16.65
2023-01-29T16:31:26.392Z,17.40
2023-01-29T16:32:35.799Z,17.02
2023-01-29T16:33:46.161Z,16.63
2023-01-29T16:34:59.969Z,18.30
2023-01-29T16:37:36.761Z,16.67
2023-01-29T16:39:01.021Z,15.90
2023-01-29T16:43:28.502Z,15.95
2023-01-29T16:44:38.832Z,15.96
2023-01-29T16:47:32.249Z,15.65
2023-01-29T16:48:41.416Z,15.55
2023-01-29T16:49:53.308Z,16.85
2023-01-29T16:51:14.303Z,20.22
2023-01-29T16:53:37.822Z,17.77
2023-01-29T16:54:47.259Z,17.80
2023-01-29T16:56:05.607Z,17.02
2023-01-29T16:58:34.758Z,14.82
2023-01-29T16:59:43.863Z,13.28
2023-01-29T17:01:10.862Z,14.12
2023-01-29T17:02:33.742Z,13.80
2023-01-29T17:05:01.425Z,16.22
2023-01-29T17:07:30.145Z,15.02
2023-01-29T17:08:42.374Z,15.40
2023-01-29T17:09:55.657Z,16.03
2023-01-29T17:11:07.707Z,15.52
2023-01-29T17:12:20.007Z,15.53
2023-01-29T17:15:00.130Z,15.12
2023-01-29T17:16:18.137Z,14.55
2023-01-29T17:17:34.080Z,12.47
2023-01-29T17:18:43.686Z,13.62
2023-01-29T17:19:52.669Z,12.97
2023-01-29T17:21:01.794Z,12.47
2023-01-29T17:23:28.758Z,12.85
2023-01-29T17:24:37.288Z,11.70
2023-01-29T17:25:47.490Z,12.10
2023-01-29T17:28:14.173Z,13.07
2023-01-29T17:30:44.682Z,11.80
2023-01-29T17:31:55.607Z,11.53
2023-01-29T17:33:16.686Z,11.62
2023-01-29T17:34:27.744Z,11.07
2023-01-29T17:36:45.524Z,10.28
2023-01-29T17:42:00.889Z,10.85
2023-01-29T17:43:11.224Z,9.92
2023-01-29T17:45:36.416Z,10.32
2023-01-29T17:46:45.868Z,9.75
2023-01-29T17:47:54.515Z,10.25
2023-01-29T17:50:27.313Z,10.27
2023-01-29T17:51:37.131Z,11.70
2023-01-29T17:52:46.169Z,11.00
2023-01-29T17:53:54.777Z,10.62
2023-01-29T17:55:04.431Z,11.53
2023-01-29T21:52:04.097Z,10.43
2023-01-29T21:53:14.268Z,11.03
2023-01-29T21:54:27.708Z,11.03
2023-01-29T21:55:36.474Z,11.70
2023-01-29T21:56:45.713Z,10.85
2023-01-29T21:57:55.538Z,10.80
2023-01-29T21:59:04.267Z,10.55
2023-01-29T22:00:14.548Z,10.54
2023-01-29T22:01:36.595Z,10.55
2023-01-29T22:02:34.612Z,10.55
2023-01-29T22:03:46.944Z,10.60
2023-01-29T22:05:05.291Z,9.98
2023-01-29T22:06:09.088Z,9.98
2023-01-29T22:07:18.025Z,9.73
2023-01-29T22:08:26.590Z,10.62
2023-01-29T22:09:36.136Z,8.98
2023-01-29T22:10:46.064Z,9.53
2023-01-29T22:11:54.776Z,7.72
2023-01-29T22:13:03.605Z,8.45
2023-01-29T22:14:13.099Z,8.98
2023-01-29T22:15:23.883Z,8.82
2023-01-29T22:16:33.404Z,9.80
2023-01-29T22:17:43.342Z,8.80
2023-01-29T22:18:51.876Z,9.07
2023-01-29T22:20:01.621Z,9.02
2023-01-29T22:21:11.134Z,9.57
2023-01-29T22:22:20.765Z,9.15
2023-01-29T22:23:30.974Z,9.93
2023-01-29T22:26:04.891Z,10.52
2023-01-29T22:27:15.461Z,9.70
2023-01-29T22:28:24.608Z,9.44
2023-01-29T22:29:33.428Z,9.87
2023-01-29T22:30:44.378Z,10.78
2023-01-29T22:31:53.832Z,10.52
2023-01-29T22:33:02.539Z,10.28
2023-01-29T22:35:51.773Z,10.77
2023-01-29T22:37:01.604Z,10.75
2023-01-29T22:38:10.709Z,12.17
2023-01-29T22:39:19.711Z,10.92
2023-01-29T22:40:28.559Z,11.18
2023-01-29T22:41:37.565Z,12.03
2023-01-29T22:44:10.127Z,13.35
2023-01-29T22:46:53.917Z,11.95
2023-01-29T22:48:04.960Z,10.84
2023-01-29T22:49:15.167Z,10.63
2023-01-29T22:50:24.730Z,10.50
2023-01-29T22:51:34.498Z,9.57
2023-01-29T22:54:09.020Z,8.77
2023-01-29T22:55:18.749Z,9.37
2023-01-29T22:56:31.398Z,8.57
2023-01-29T22:57:40.962Z,8.17
2023-01-29T23:00:10.632Z,7.00
2023-01-29T23:01:21.418Z,7.78
2023-01-29T23:02:30.560Z,8.03
2023-01-29T23:04:54.234Z,7.97
2023-01-29T23:07:38.401Z,7.78
2023-01-29T23:08:49.300Z,8.18
2023-01-29T23:11:15.471Z,8.45
2023-01-29T23:12:31.899Z,8.23
2023-01-29T23:15:10.484Z,8.42
2023-01-29T23:16:22.060Z,8.56
2023-01-29T23:17:31.530Z,9.40
2023-01-29T23:19:57.440Z,10.47
2023-01-29T23:21:07.324Z,11.83
2023-01-29T23:22:17.863Z,12.40
2023-01-29T23:23:30.660Z,13.33
2023-01-29T23:24:40.424Z,13.58
2023-01-29T23:26:07.265Z,14.35
2023-01-29T23:27:16.365Z,14.37
2023-01-29T23:28:26.195Z,13.55
2023-01-29T23:29:36.047Z,13.72
2023-01-29T23:30:45.967Z,12.90
2023-01-29T23:31:55.375Z,12.45
2023-01-29T23:34:21.648Z,12.38
2023-01-29T23:35:30.956Z,12.07
2023-01-29T23:36:40.383Z,12.33
2023-01-29T23:37:49.047Z,11.92
2023-01-29T23:38:57.626Z,10.90
2023-01-29T23:40:08.883Z,10.85
2023-01-29T23:42:32.886Z,11.60
2023-01-29T23:43:42.538Z,11.85
2023-01-29T23:44:52.219Z,10.25
2023-01-29T23:46:02.522Z,11.20
2023-01-29T23:47:12.305Z,10.60
2023-01-29T23:48:23.225Z,11.12
2023-01-29T23:50:43.401Z,9.73
2023-01-29T23:51:52.747Z,9.53
2023-01-29T23:53:01.792Z,9.57
2023-01-29T23:54:10.875Z,9.83
2023-01-29T23:55:20.549Z,9.82
2023-01-29T23:56:30.117Z,9.53
2023-01-29T23:57:38.983Z,8.90
2023-01-29T23:58:50.791Z,8.65
2023-01-29T23:59:59.670Z,8.83
